Birnamwood, Wisconsin
Current Conditions -  °F | °C
As of 10:55 AM on Thursday 27 Nov 2014 (Local Time) from KAIG Reporting Station
Clear Clear  
Wind Chill: -5°   Ceiling: Unl
Heat Index: 10°   Visibility: 10mi
Dew Point:   Wind: 12mph
Humidity: 68%   Direction: 340°NNW
Pressure: 30.31"   Gusts: NA
Location:  44.93°N, 89.21°W
Report Text: KAIG 271655Z AUTO 34010KT 10SM CLR M12/M17 A3031 RMK AO2 T11221170
Loading
Personal Weather Stations






























Interactive Weather Map New forecast layout! Learn more

10-Day Weather Forecast

Advertisements
Track Severe Weather on mobile